Time;durP1;ratioP1;P1;durP2;ratioP2;P2;SDS_P1;SDS_P2;PMS_P1;PMS_P2;Temp;Humidity;BMP_temperature;BMP_pressure;BME280_temperature;BME280_humidity;BME280_pressure;Samples;Min_cycle;Max_cycle;Signal;HPM_P1;HPM_P2
2022/03/02 00:01:37;;;;;;;43.97;23.83;;;;;;;;;;5094421;28;20028;-65
2022/03/02 00:04:03;;;;;;;42.78;23.90;;;;;;;;;;5093171;28;20052;-64
2022/03/02 00:06:29;;;;;;;44.55;24.60;;;;;;;;;;5094673;28;20460;-65
2022/03/02 00:08:55;;;;;;;44.30;23.92;;;;;;;;;;5094384;28;20024;-64
2022/03/02 00:11:22;;;;;;;39.13;23.88;;;;;;;;;;5094360;28;20043;-64
2022/03/02 00:13:48;;;;;;;37.72;23.02;;;;;;;;;;5097454;28;20047;-65
2022/03/02 00:16:14;;;;;;;39.75;22.05;;;;;;;;;;5114897;28;20024;-65
2022/03/02 00:18:41;;;;;;;39.88;23.77;;;;;;;;;;5114572;28;20024;-65
2022/03/02 00:21:07;;;;;;;38.85;21.92;;;;;;;;;;5114464;28;20031;-65
2022/03/02 00:23:33;;;;;;;40.40;23.10;;;;;;;;;;5114154;28;20414;-65
2022/03/02 00:26:00;;;;;;;41.47;24.83;;;;;;;;;;5114407;28;20035;-65
2022/03/02 00:28:26;;;;;;;48.15;24.20;;;;;;;;;;5095999;28;20024;-65
2022/03/02 00:30:52;;;;;;;41.72;22.65;;;;;;;;;;5114036;28;20031;-65
2022/03/02 00:33:18;;;;;;;37.28;22.25;;;;;;;;;;5113952;28;20023;-65
2022/03/02 00:35:44;;;;;;;34.60;20.52;;;;;;;;;;5114219;28;20035;-65
2022/03/02 00:38:11;;;;;;;38.78;22.40;;;;;;;;;;5114142;28;20090;-65
2022/03/02 00:40:38;;;;;;;39.78;23.02;;;;;;;;;;5114093;28;20475;-65
2022/03/02 00:43:04;;;;;;;36.38;23.15;;;;;;;;;;5114089;28;20380;-65
2022/03/02 00:46:01;;;;;;;46.47;22.80;;;;;;;;;;5114021;28;20032;-65
2022/03/02 00:48:27;;;;;;;42.53;23.17;;;;;;;;;;5114296;28;20031;-65
2022/03/02 00:50:54;;;;;;;44.13;24.33;;;;;;;;;;5095724;28;20043;-65
2022/03/02 00:53:20;;;;;;;37.83;22.70;;;;;;;;;;5095333;28;20031;-65
2022/03/02 00:55:47;;;;;;;34.10;21.45;;;;;;;;;;5113856;28;20027;-65
2022/03/02 00:58:13;;;;;;;37.63;21.92;;;;;;;;;;5113861;28;20372;-66
2022/03/02 01:00:40;;;;;;;41.28;23.00;;;;;;;;;;5113783;28;20118;-66
2022/03/02 01:03:06;;;;;;;38.63;22.88;;;;;;;;;;5095452;28;20479;-66
2022/03/02 01:05:32;;;;;;;35.60;21.27;;;;;;;;;;5113726;28;20032;-67
2022/03/02 01:07:58;;;;;;;38.63;21.35;;;;;;;;;;5113995;28;20448;-66
2022/03/02 01:10:25;;;;;;;33.40;18.95;;;;;;;;;;5113456;28;20028;-65
2022/03/02 01:12:51;;;;;;;37.75;22.92;;;;;;;;;;5113354;28;20072;-65
2022/03/02 01:15:17;;;;;;;37.47;21.08;;;;;;;;;;5113652;28;20043;-66
2022/03/02 01:17:44;;;;;;;39.97;22.98;;;;;;;;;;5113590;28;20533;-66
2022/03/02 01:20:12;;;;;;;35.05;21.05;;;;;;;;;;5095073;28;20523;-65
2022/03/02 01:22:38;;;;;;;36.13;21.60;;;;;;;;;;5113570;28;20081;-66
2022/03/02 01:25:06;;;;;;;34.70;21.60;;;;;;;;;;5113815;28;20553;-65
2022/03/02 01:27:32;;;;;;;39.70;21.45;;;;;;;;;;5095189;28;20379;-66
2022/03/02 01:29:58;;;;;;;37.97;22.10;;;;;;;;;;5113479;28;20067;-66
2022/03/02 01:32:24;;;;;;;37.90;21.45;;;;;;;;;;5113465;28;20024;-65
2022/03/02 01:34:51;;;;;;;35.95;20.40;;;;;;;;;;5095103;28;20597;-65
2022/03/02 01:37:17;;;;;;;40.55;21.88;;;;;;;;;;5113412;28;20027;-64
2022/03/02 01:39:44;;;;;;;37.97;20.50;;;;;;;;;;5095605;28;20468;-65
2022/03/02 01:42:10;;;;;;;33.95;21.38;;;;;;;;;;5099322;28;20127;-64
2022/03/02 01:44:37;;;;;;;35.38;20.48;;;;;;;;;;5117530;28;20025;-65
2022/03/02 01:47:04;;;;;;;34.45;20.88;;;;;;;;;;5117512;28;20026;-65
2022/03/02 01:49:30;;;;;;;35.45;20.98;;;;;;;;;;5117513;28;20059;-65
2022/03/02 01:51:57;;;;;;;35.88;21.25;;;;;;;;;;5117706;28;20028;-64
2022/03/02 01:54:23;;;;;;;33.72;20.95;;;;;;;;;;5099011;28;20032;-65
2022/03/02 01:56:50;;;;;;;36.58;20.85;;;;;;;;;;5117596;28;20020;-65
2022/03/02 01:59:16;;;;;;;32.60;20.52;;;;;;;;;;5117312;28;20063;-65
2022/03/02 02:01:43;;;;;;;33.35;20.25;;;;;;;;;;5098856;28;20035;-65
2022/03/02 02:04:10;;;;;;;35.20;20.65;;;;;;;;;;5098799;28;20520;-65
2022/03/02 02:06:36;;;;;;;34.65;19.38;;;;;;;;;;5117134;28;20027;-65
2022/03/02 02:09:05;;;;;;;35.28;20.73;;;;;;;;;;5117103;28;20020;-66
2022/03/02 02:11:32;;;;;;;32.92;18.40;;;;;;;;;;5117063;28;20031;-65
2022/03/02 02:13:58;;;;;;;35.28;20.92;;;;;;;;;;5098387;28;20043;-65
2022/03/02 02:16:25;;;;;;;28.42;18.60;;;;;;;;;;5116981;28;20024;-66
2022/03/02 02:18:54;;;;;;;34.22;21.02;;;;;;;;;;5116863;28;20030;-64
2022/03/02 02:21:21;;;;;;;32.88;19.55;;;;;;;;;;5116797;28;20526;-64
2022/03/02 02:23:47;;;;;;;33.95;21.83;;;;;;;;;;5098496;28;20028;-64
2022/03/02 02:26:14;;;;;;;37.58;20.52;;;;;;;;;;5098494;28;20046;-65
2022/03/02 02:28:40;;;;;;;37.05;19.50;;;;;;;;;;5116679;28;20034;-65
2022/03/02 02:31:06;;;;;;;31.83;20.30;;;;;;;;;;5116980;28;20118;-64
2022/03/02 02:33:33;;;;;;;35.83;19.70;;;;;;;;;;5098278;28;20585;-65
2022/03/02 02:35:59;;;;;;;32.53;19.77;;;;;;;;;;5116568;28;20024;-66
2022/03/02 02:38:25;;;;;;;34.15;19.80;;;;;;;;;;5116233;28;20024;-66
2022/03/02 02:40:52;;;;;;;33.05;20.00;;;;;;;;;;5116165;28;20173;-67
2022/03/02 02:43:19;;;;;;;36.25;19.67;;;;;;;;;;5098138;28;20506;-66
2022/03/02 02:45:48;;;;;;;33.03;19.17;;;;;;;;;;5116345;28;20023;-65
2022/03/02 02:48:14;;;;;;;31.55;18.77;;;;;;;;;;5098014;28;20035;-65
2022/03/02 02:50:41;;;;;;;34.63;19.92;;;;;;;;;;5097876;28;20055;-66
2022/03/02 02:53:11;;;;;;;28.88;19.00;;;;;;;;;;5096949;28;20027;-68
2022/03/02 02:55:38;;;;;;;27.13;17.75;;;;;;;;;;5116239;28;20024;-67
2022/03/02 02:58:05;;;;;;;30.60;18.33;;;;;;;;;;5116418;28;20043;-66
2022/03/02 03:00:33;;;;;;;34.20;19.55;;;;;;;;;;5116024;28;20118;-66
2022/03/02 03:03:00;;;;;;;31.60;19.55;;;;;;;;;;5116159;28;20023;-65
2022/03/02 03:05:29;;;;;;;31.45;18.48;;;;;;;;;;5116084;28;20055;-65
2022/03/02 03:07:55;;;;;;;29.58;18.17;;;;;;;;;;5097632;28;20537;-66
2022/03/02 03:10:21;;;;;;;29.65;18.35;;;;;;;;;;5097554;28;20051;-65
2022/03/02 03:12:48;;;;;;;29.13;18.85;;;;;;;;;;5115638;28;20468;-65
2022/03/02 03:15:15;;;;;;;32.47;18.98;;;;;;;;;;5115770;28;20048;-66
2022/03/02 03:17:41;;;;;;;29.83;18.15;;;;;;;;;;5115476;28;20126;-65
2022/03/02 03:20:09;;;;;;;32.95;19.45;;;;;;;;;;5115645;28;20031;-65
2022/03/02 03:22:35;;;;;;;32.72;19.85;;;;;;;;;;5097440;28;20164;-66
2022/03/02 03:25:02;;;;;;;33.45;18.77;;;;;;;;;;5115623;28;20034;-65
2022/03/02 03:27:28;;;;;;;29.33;18.30;;;;;;;;;;5097288;28;20027;-65
2022/03/02 03:29:54;;;;;;;30.20;17.17;;;;;;;;;;5115532;28;20031;-66
2022/03/02 03:32:20;;;;;;;50.13;21.98;;;;;;;;;;5097192;28;20024;-65
2022/03/02 03:34:47;;;;;;;38.65;18.38;;;;;;;;;;5097435;28;20408;-65
2022/03/02 03:37:13;;;;;;;35.92;19.65;;;;;;;;;;5115392;28;20028;-65
2022/03/02 03:39:42;;;;;;;34.78;18.48;;;;;;;;;;5115267;28;20024;-65
2022/03/02 03:42:08;;;;;;;30.13;19.05;;;;;;;;;;5097005;28;20039;-66
2022/03/02 03:44:34;;;;;;;31.95;18.38;;;;;;;;;;5115208;28;20074;-66
2022/03/02 03:47:00;;;;;;;30.13;17.42;;;;;;;;;;5115498;28;20345;-66
2022/03/02 03:49:27;;;;;;;34.70;18.98;;;;;;;;;;5115391;28;20037;-66
2022/03/02 03:51:54;;;;;;;32.08;19.17;;;;;;;;;;5115234;28;20062;-66
2022/03/02 03:54:20;;;;;;;31.00;17.55;;;;;;;;;;5114765;28;20102;-66
2022/03/02 03:56:46;;;;;;;30.58;17.33;;;;;;;;;;5096723;28;20480;-66
2022/03/02 03:59:13;;;;;;;26.17;18.70;;;;;;;;;;5114690;28;20447;-65
2022/03/02 04:01:39;;;;;;;26.77;16.67;;;;;;;;;;5096601;28;20035;-66
2022/03/02 04:04:05;;;;;;;34.60;17.85;;;;;;;;;;5114514;28;20032;-66
2022/03/02 04:06:31;;;;;;;29.60;17.40;;;;;;;;;;5096441;28;20031;-64
2022/03/02 04:08:58;;;;;;;30.50;17.67;;;;;;;;;;5096399;28;20077;-64
2022/03/02 04:11:24;;;;;;;29.13;19.23;;;;;;;;;;5114678;28;20472;-65
2022/03/02 04:13:50;;;;;;;32.10;18.13;;;;;;;;;;5114546;28;20054;-64
2022/03/02 04:16:16;;;;;;;29.30;17.25;;;;;;;;;;5114627;28;20015;-64
2022/03/02 04:18:42;;;;;;;33.28;18.23;;;;;;;;;;5096237;28;20028;-64
2022/03/02 04:21:09;;;;;;;37.38;17.85;;;;;;;;;;5114380;28;20035;-64
2022/03/02 04:23:35;;;;;;;32.47;19.05;;;;;;;;;;5114502;28;20115;-64
2022/03/02 04:26:01;;;;;;;38.40;18.90;;;;;;;;;;5114470;28;20031;-64
2022/03/02 04:28:29;;;;;;;31.95;19.50;;;;;;;;;;5096100;28;20464;-64
2022/03/02 04:30:55;;;;;;;30.20;18.75;;;;;;;;;;5096017;28;20055;-64
2022/03/02 04:33:22;;;;;;;26.67;17.30;;;;;;;;;;5114383;28;20120;-65
2022/03/02 04:35:48;;;;;;;31.30;18.15;;;;;;;;;;5114273;28;20066;-65
2022/03/02 04:38:14;;;;;;;30.33;18.08;;;;;;;;;;5095927;28;20026;-65
2022/03/02 04:40:40;;;;;;;29.40;17.40;;;;;;;;;;5095792;28;20080;-64
2022/03/02 04:43:06;;;;;;;28.80;17.27;;;;;;;;;;5095867;28;20030;-64
2022/03/02 04:45:33;;;;;;;26.67;16.35;;;;;;;;;;5113837;28;20461;-65
2022/03/02 04:48:00;;;;;;;31.42;17.65;;;;;;;;;;5113711;28;20079;-65
2022/03/02 04:50:26;;;;;;;30.33;17.95;;;;;;;;;;5095748;28;20031;-65
2022/03/02 04:52:53;;;;;;;27.60;16.60;;;;;;;;;;5095777;28;20417;-65
2022/03/02 04:55:19;;;;;;;24.73;14.80;;;;;;;;;;5113964;28;20027;-66
2022/03/02 04:58:04;;;;;;;24.27;16.77;;;;;;;;;;5113948;28;20083;-65
2022/03/02 05:00:31;;;;;;;28.00;16.92;;;;;;;;;;5113843;28;20078;-66
2022/03/02 05:02:58;;;;;;;35.28;19.52;;;;;;;;;;5113899;28;20026;-66
2022/03/02 05:05:25;;;;;;;29.85;18.30;;;;;;;;;;5113497;28;20489;-65
2022/03/02 05:07:51;;;;;;;30.13;17.23;;;;;;;;;;5113764;28;20460;-65
2022/03/02 05:10:23;;;;;;;33.05;17.13;;;;;;;;;;5095389;28;20031;-65
2022/03/02 05:12:49;;;;;;;30.38;18.50;;;;;;;;;;5113767;28;20032;-66
2022/03/02 05:15:16;;;;;;;29.98;18.42;;;;;;;;;;5112254;28;20046;-66
2022/03/02 05:17:43;;;;;;;32.08;18.05;;;;;;;;;;5095364;28;20055;-66
2022/03/02 05:20:10;;;;;;;27.77;16.60;;;;;;;;;;5095227;28;20035;-66
2022/03/02 05:22:36;;;;;;;28.73;17.75;;;;;;;;;;5094846;28;20015;-65
2022/03/02 05:25:03;;;;;;;33.92;16.98;;;;;;;;;;5095283;28;20051;-64
2022/03/02 05:27:29;;;;;;;25.27;16.92;;;;;;;;;;5113448;28;20031;-64
2022/03/02 05:29:55;;;;;;;33.33;16.67;;;;;;;;;;5113375;28;20039;-64
2022/03/02 05:32:22;;;;;;;28.40;15.82;;;;;;;;;;5113722;28;20020;-64
2022/03/02 05:34:48;;;;;;;26.67;16.48;;;;;;;;;;5113420;28;20510;-65
2022/03/02 05:37:14;;;;;;;29.65;16.60;;;;;;;;;;5113352;28;20361;-64
2022/03/02 05:39:40;;;;;;;35.13;20.27;;;;;;;;;;5095017;28;20051;-64
2022/03/02 05:42:07;;;;;;;29.75;17.23;;;;;;;;;;5113601;28;20027;-64
2022/03/02 05:44:33;;;;;;;25.77;15.77;;;;;;;;;;5113133;28;20081;-64
2022/03/02 05:47:00;;;;;;;29.30;17.10;;;;;;;;;;5113271;28;20047;-65
2022/03/02 05:49:26;;;;;;;27.92;16.67;;;;;;;;;;5094957;28;20034;-65
2022/03/02 05:51:52;;;;;;;32.20;17.67;;;;;;;;;;5113039;28;20084;-65
2022/03/02 05:54:18;;;;;;;29.92;17.35;;;;;;;;;;5094988;28;20023;-65
2022/03/02 05:56:44;;;;;;;33.30;18.25;;;;;;;;;;5113164;28;20375;-65
2022/03/02 05:59:11;;;;;;;32.80;17.77;;;;;;;;;;5112888;28;20081;-65
2022/03/02 06:01:38;;;;;;;33.42;17.98;;;;;;;;;;5113175;28;20027;-65
2022/03/02 06:04:08;;;;;;;33.83;17.90;;;;;;;;;;5113168;28;20059;-66
2022/03/02 06:06:35;;;;;;;29.85;17.65;;;;;;;;;;5113325;28;20347;-66
2022/03/02 06:09:05;;;;;;;27.92;16.65;;;;;;;;;;5112970;28;20019;-66
2022/03/02 06:11:32;;;;;;;33.25;17.92;;;;;;;;;;5094727;28;20034;-66
2022/03/02 06:13:58;;;;;;;34.53;18.38;;;;;;;;;;5112817;28;20027;-65
2022/03/02 06:16:25;;;;;;;35.65;17.08;;;;;;;;;;5113064;28;20387;-65
2022/03/02 06:18:51;;;;;;;32.83;18.23;;;;;;;;;;5094699;28;20443;-65
2022/03/02 06:21:23;;;;;;;32.13;18.98;;;;;;;;;;5112843;28;20035;-66
2022/03/02 06:23:50;;;;;;;38.20;20.63;;;;;;;;;;5112839;28;20074;-66
2022/03/02 06:26:18;;;;;;;38.40;19.73;;;;;;;;;;5114204;28;20019;-66
2022/03/02 06:28:44;;;;;;;32.50;20.73;;;;;;;;;;5098302;28;20116;-66
2022/03/02 06:31:10;;;;;;;37.72;20.58;;;;;;;;;;5116618;28;20070;-66
2022/03/02 06:33:37;;;;;;;36.08;20.02;;;;;;;;;;5098063;28;20055;-66
2022/03/02 06:36:03;;;;;;;35.67;21.13;;;;;;;;;;5098224;28;20418;-66
2022/03/02 06:38:29;;;;;;;40.00;22.05;;;;;;;;;;5098154;28;20026;-66
2022/03/02 06:41:03;;;;;;;45.60;22.63;;;;;;;;;;5116541;28;20495;-65
2022/03/02 06:43:34;;;;;;;37.65;20.52;;;;;;;;;;5116442;28;20459;-65
2022/03/02 06:46:07;;;;;;;42.85;22.27;;;;;;;;;;5116299;28;20020;-64
2022/03/02 06:48:36;;;;;;;43.88;23.65;;;;;;;;;;5116354;28;20023;-65
2022/03/02 06:51:03;;;;;;;46.75;23.88;;;;;;;;;;5097942;28;20034;-66
2022/03/02 06:53:33;;;;;;;37.95;21.17;;;;;;;;;;5116192;28;20023;-66
2022/03/02 06:56:00;;;;;;;40.47;20.45;;;;;;;;;;5116105;28;20044;-65
2022/03/02 06:58:28;;;;;;;41.80;22.45;;;;;;;;;;5097795;28;20024;-66
2022/03/02 07:00:54;;;;;;;36.42;17.98;;;;;;;;;;5115683;28;20032;-65
2022/03/02 07:03:23;;;;;;;37.95;20.92;;;;;;;;;;5116036;28;20418;-66
2022/03/02 07:05:51;;;;;;;32.95;19.15;;;;;;;;;;5116234;28;20027;-66
2022/03/02 07:08:17;;;;;;;27.70;15.57;;;;;;;;;;5115917;28;20055;-66
2022/03/02 07:10:43;;;;;;;28.00;16.92;;;;;;;;;;5097414;28;20038;-65
2022/03/02 07:13:09;;;;;;;35.13;16.67;;;;;;;;;;5115924;28;20456;-66
2022/03/02 07:15:36;;;;;;;39.08;19.85;;;;;;;;;;5115309;28;20071;-66
2022/03/02 07:18:03;;;;;;;62.63;30.30;;;;;;;;;;5115661;28;20023;-65
2022/03/02 07:20:30;;;;;;;35.97;21.23;;;;;;;;;;5109352;28;20085;-65
2022/03/02 07:22:57;;;;;;;33.72;18.90;;;;;;;;;;5107020;28;20037;-66
2022/03/02 07:25:31;;;;;;;35.53;16.75;;;;;;;;;;5100602;28;20028;-66
2022/03/02 07:27:58;;;;;;;25.80;16.23;;;;;;;;;;5077063;28;20024;-65
2022/03/02 07:30:25;;;;;;;34.88;18.58;;;;;;;;;;5077203;28;20040;-65
2022/03/02 07:32:54;;;;;;;38.85;20.27;;;;;;;;;;5108962;28;20033;-65
2022/03/02 07:35:20;;;;;;;42.47;21.48;;;;;;;;;;5115198;28;20023;-66
2022/03/02 07:37:47;;;;;;;42.85;20.73;;;;;;;;;;5114534;28;20106;-65
2022/03/02 07:40:14;;;;;;;34.17;15.95;;;;;;;;;;5115157;28;20039;-66
2022/03/02 07:42:41;;;;;;;33.40;16.73;;;;;;;;;;5115149;28;20028;-66
2022/03/02 07:45:07;;;;;;;106.75;43.08;;;;;;;;;;5096905;28;20047;-66
2022/03/02 07:47:33;;;;;;;28.23;14.88;;;;;;;;;;5115017;28;20035;-68
2022/03/02 07:50:00;;;;;;;28.40;14.48;;;;;;;;;;5096737;28;20423;-66
2022/03/02 07:52:26;;;;;;;30.27;17.98;;;;;;;;;;5114996;28;20117;-65
2022/03/02 07:54:54;;;;;;;30.98;17.42;;;;;;;;;;5114747;28;20426;-70
2022/03/02 07:57:21;;;;;;;30.88;14.98;;;;;;;;;;5114976;28;20111;-66
2022/03/02 07:59:48;;;;;;;28.20;14.55;;;;;;;;;;5113060;28;20149;-73
2022/03/02 08:02:15;;;;;;;25.83;13.40;;;;;;;;;;5093950;28;20377;-72
2022/03/02 08:04:42;;;;;;;26.42;14.68;;;;;;;;;;5094401;28;20024;-69
2022/03/02 08:07:08;;;;;;;31.92;14.30;;;;;;;;;;5077757;28;20056;-72
2022/03/02 08:09:34;;;;;;;29.73;14.43;;;;;;;;;;5104525;28;20020;-68
2022/03/02 08:12:01;;;;;;;36.20;17.35;;;;;;;;;;5103396;28;20558;-70
2022/03/02 08:14:32;;;;;;;27.27;14.55;;;;;;;;;;5078113;28;20063;-68
2022/03/02 08:16:58;;;;;;;29.50;13.73;;;;;;;;;;5074321;28;20031;-67
2022/03/02 08:19:24;;;;;;;28.08;14.07;;;;;;;;;;5073950;28;20478;-67
2022/03/02 08:21:58;;;;;;;29.20;15.40;;;;;;;;;;5073578;28;20112;-66
2022/03/02 08:24:26;;;;;;;25.50;14.18;;;;;;;;;;5073763;28;20078;-66
2022/03/02 08:26:52;;;;;;;24.27;13.68;;;;;;;;;;5082602;28;20366;-67
2022/03/02 08:29:20;;;;;;;26.42;14.65;;;;;;;;;;5075242;28;20024;-67
2022/03/02 08:31:48;;;;;;;37.45;17.70;;;;;;;;;;5082559;28;20023;-69
2022/03/02 08:34:15;;;;;;;27.52;14.77;;;;;;;;;;5081346;28;20025;-68
2022/03/02 08:36:44;;;;;;;29.33;15.57;;;;;;;;;;5073237;28;20491;-67
2022/03/02 08:39:11;;;;;;;33.42;15.43;;;;;;;;;;5075646;28;20039;-66
2022/03/02 08:41:41;;;;;;;28.70;15.57;;;;;;;;;;5067660;28;20112;-72
2022/03/02 08:44:09;;;;;;;29.10;14.80;;;;;;;;;;5052098;28;20028;-67
2022/03/02 08:46:35;;;;;;;27.70;13.75;;;;;;;;;;5053378;28;20032;-68
2022/03/02 08:49:01;;;;;;;27.25;12.90;;;;;;;;;;5052812;28;20112;-65
2022/03/02 08:51:28;;;;;;;23.60;13.43;;;;;;;;;;5051715;28;20114;-66
2022/03/02 08:53:55;;;;;;;25.63;12.82;;;;;;;;;;5051889;28;20763;-66
2022/03/02 08:56:22;;;;;;;27.23;15.02;;;;;;;;;;5053102;28;20033;-65
2022/03/02 08:58:48;;;;;;;27.67;14.43;;;;;;;;;;5053118;28;20035;-66
2022/03/02 09:01:15;;;;;;;23.92;12.38;;;;;;;;;;5053170;28;20037;-65
2022/03/02 09:03:46;;;;;;;25.95;12.50;;;;;;;;;;5051789;28;20025;-66
2022/03/02 09:06:13;;;;;;;23.42;12.43;;;;;;;;;;5053150;28;20025;-66
2022/03/02 09:08:40;;;;;;;17.50;10.10;;;;;;;;;;5051664;28;20029;-66
2022/03/02 09:11:07;;;;;;;19.75;11.00;;;;;;;;;;5051657;28;20040;-66
2022/03/02 09:13:33;;;;;;;24.30;11.52;;;;;;;;;;5052868;28;20056;-67
2022/03/02 09:15:59;;;;;;;17.05;11.10;;;;;;;;;;5091465;28;20040;-66
2022/03/02 09:18:25;;;;;;;20.25;11.52;;;;;;;;;;5074966;28;20023;-66
2022/03/02 09:20:58;;;;;;;29.23;14.40;;;;;;;;;;5093027;28;20036;-67
2022/03/02 09:23:28;;;;;;;26.67;12.63;;;;;;;;;;5093189;28;20024;-67
2022/03/02 09:25:57;;;;;;;22.95;12.30;;;;;;;;;;5093112;28;20040;-65
2022/03/02 09:28:25;;;;;;;27.63;13.80;;;;;;;;;;5093025;28;20031;-65
2022/03/02 09:30:53;;;;;;;15.57;10.00;;;;;;;;;;5074661;28;20048;-65
2022/03/02 09:33:22;;;;;;;28.48;14.20;;;;;;;;;;5092951;28;20030;-67
2022/03/02 09:35:48;;;;;;;19.02;10.68;;;;;;;;;;5092796;28;20085;-66
2022/03/02 09:38:15;;;;;;;19.50;10.63;;;;;;;;;;5093205;28;20032;-65
2022/03/02 09:40:44;;;;;;;27.52;13.75;;;;;;;;;;5092784;28;20032;-65
2022/03/02 09:43:14;;;;;;;25.42;11.50;;;;;;;;;;5093002;28;20024;-65
2022/03/02 09:45:42;;;;;;;18.80;9.90;;;;;;;;;;5092874;28;20056;-65
2022/03/02 09:48:12;;;;;;;20.13;10.80;;;;;;;;;;5092741;28;20111;-65
2022/03/02 09:50:39;;;;;;;23.52;12.20;;;;;;;;;;5092758;28;20127;-64
2022/03/02 09:53:12;;;;;;;18.63;10.35;;;;;;;;;;5092680;28;20024;-67
2022/03/02 09:55:40;;;;;;;19.17;10.82;;;;;;;;;;5091567;28;20078;-65
2022/03/02 09:58:06;;;;;;;20.38;9.80;;;;;;;;;;5092693;28;20031;-67
2022/03/02 10:00:33;;;;;;;16.45;9.73;;;;;;;;;;5093000;28;20115;-67
2022/03/02 10:03:01;;;;;;;15.00;8.70;;;;;;;;;;5096777;28;20032;-66
2022/03/02 10:05:31;;;;;;;15.52;9.70;;;;;;;;;;5096676;28;20024;-66
2022/03/02 10:08:02;;;;;;;16.45;9.35;;;;;;;;;;5096169;28;20376;-66
2022/03/02 10:10:31;;;;;;;15.70;9.07;;;;;;;;;;5096619;28;20035;-66
2022/03/02 10:12:58;;;;;;;12.75;8.15;;;;;;;;;;5095142;28;20297;-66
2022/03/02 10:15:24;;;;;;;20.67;13.65;;;;;;;;;;5095994;28;20523;-66
2022/03/02 10:17:51;;;;;;;16.25;9.43;;;;;;;;;;5096299;28;20028;-65
2022/03/02 10:20:19;;;;;;;28.98;15.20;;;;;;;;;;5096343;28;20043;-65
2022/03/02 10:22:48;;;;;;;18.85;11.23;;;;;;;;;;5094805;28;20127;-66
2022/03/02 10:25:18;;;;;;;31.38;15.50;;;;;;;;;;5091228;28;20407;-66
2022/03/02 10:28:02;;;;;;;39.83;22.98;;;;;;;;;;5096267;28;20020;-65
2022/03/02 10:30:33;;;;;;;15.02;8.68;;;;;;;;;;5096189;28;20468;-67
2022/03/02 10:33:18;;;;;;;21.48;10.82;;;;;;;;;;5096143;28;20461;-65
2022/03/02 10:35:51;;;;;;;19.77;9.32;;;;;;;;;;5096281;28;20024;-65
2022/03/02 10:38:23;;;;;;;14.70;8.88;;;;;;;;;;5077988;28;20028;-66
2022/03/02 10:40:51;;;;;;;18.88;9.43;;;;;;;;;;5095685;28;20028;-65
2022/03/02 10:43:19;;;;;;;15.23;9.35;;;;;;;;;;5095244;28;20032;-66
2022/03/02 10:45:51;;;;;;;15.50;9.63;;;;;;;;;;5076979;28;20028;-66
2022/03/02 10:48:19;;;;;;;17.60;10.18;;;;;;;;;;5095684;28;20016;-66
2022/03/02 10:50:48;;;;;;;14.68;8.45;;;11.70;65.90;;;;;;5077139;28;20031;-66
2022/03/02 10:53:18;;;;;;;18.20;10.45;;;12.20;68.00;;;;;;5095522;28;20028;-66
2022/03/02 10:55:47;;;;;;;16.00;8.45;;;12.70;64.60;;;;;;5095120;28;20377;-66
2022/03/02 10:58:18;;;;;;;17.15;10.27;;;13.10;61.60;;;;;;5095597;28;20021;-66
2022/03/02 11:00:45;;;;;;;15.17;7.80;;;13.50;61.30;;;;;;5095585;28;20115;-66
2022/03/02 11:03:12;;;;;;;15.38;9.80;;;13.10;60.50;;;;;;5095933;28;20518;-66
2022/03/02 11:05:39;;;;;;;12.70;7.50;;;13.20;61.00;;;;;;5095616;28;20024;-66
2022/03/02 11:08:05;;;;;;;15.63;9.23;;;13.10;60.70;;;;;;5095251;28;20473;-66
2022/03/02 11:10:40;;;;;;;19.60;8.65;;;13.40;60.50;;;;;;5095215;28;20024;-66
2022/03/02 11:13:11;;;;;;;14.30;8.77;;;13.20;58.20;;;;;;5076436;28;20369;-66
2022/03/02 11:15:57;;;;;;;23.33;13.55;;;13.90;58.10;;;;;;5077009;28;20040;-66
2022/03/02 11:18:41;;;;;;;15.18;8.38;;;14.40;56.60;;;;;;5095242;28;20035;-66
2022/03/02 11:21:08;;;;;;;16.95;10.63;;;14.60;56.60;;;;;;5095240;28;20055;-67
2022/03/02 11:23:42;;;;;;;16.27;8.13;;;15.20;54.60;;;;;;5095056;28;20122;-67
2022/03/02 11:26:14;;;;;;;19.10;10.05;;;14.60;53.90;;;;;;5095225;28;20024;-67
2022/03/02 11:28:48;;;;;;;16.75;10.18;;;15.10;53.90;;;;;;5094703;28;20103;-65
2022/03/02 11:31:19;;;;;;;28.50;15.63;;;;;;;;;;5093700;28;20035;-66
2022/03/02 11:33:44;;;;;;;17.63;9.55;;;15.80;53.30;;;;;;5093592;28;20063;-67
2022/03/02 11:36:16;;;;;;;22.85;10.13;;;17.20;50.50;;;;;;5094835;28;20082;-67
2022/03/02 11:38:43;;;;;;;21.13;10.88;;;;;;;;;;5094510;28;20358;-66
2022/03/02 11:41:11;;;;;;;24.88;10.45;;;17.00;50.20;;;;;;5094739;28;20048;-68
2022/03/02 11:43:38;;;;;;;19.42;11.77;;;;;;;;;;5076487;28;20110;-67
2022/03/02 11:46:05;;;;;;;15.38;7.68;;;;;;;;;;5094764;28;20032;-65
2022/03/02 11:48:34;;;;;;;15.23;9.93;;;;;;;;;;5094818;28;20165;-66
2022/03/02 11:51:01;;;;;;;17.40;8.82;;;;;;;;;;5094339;28;20020;-66
2022/03/02 11:53:58;;;;;;;21.88;10.88;;;16.30;50.90;;;;;;5093135;28;20016;-67
2022/03/02 11:56:26;;;;;;;31.92;10.45;;;;;;;;;;5077847;28;20481;-68
2022/03/02 11:58:57;;;;;;;10.40;7.03;;;;;;;;;;5076160;28;20024;-67
2022/03/02 12:01:36;;;;;;;13.07;7.47;;;17.90;48.80;;;;;;5094382;28;20028;-67
2022/03/02 12:04:03;;;;;;;33.53;19.08;;;;;;;;;;5076086;28;20036;-67
2022/03/02 12:06:31;;;;;;;18.08;10.52;;;;;;;;;;5094344;28;20028;-67
2022/03/02 12:08:57;;;;;;;13.25;8.13;;;17.90;48.40;;;;;;5094178;28;20024;-66
2022/03/02 12:11:25;;;;;;;10.60;7.70;;;;;;;;;;5094188;28;20107;-68
2022/03/02 12:14:09;;;;;;;14.48;8.63;;;17.80;46.90;;;;;;5075701;28;20020;-66
2022/03/02 12:16:37;;;;;;;25.48;10.70;;;;;;;;;;5094150;28;20024;-67
2022/03/02 12:19:03;;;;;;;21.23;12.65;;;18.00;46.90;;;;;;5075759;28;20024;-65
2022/03/02 12:21:29;;;;;;;15.82;8.30;;;18.90;46.60;;;;;;5075464;28;20029;-66
2022/03/02 12:23:56;;;;;;;15.35;8.90;;;19.10;45.00;;;;;;5093797;28;20474;-66
2022/03/02 12:26:22;;;;;;;12.52;8.40;;;19.70;44.60;;;;;;5075802;28;20060;-67
2022/03/02 12:28:55;;;;;;;14.32;8.18;;;;;;;;;;5093920;28;20052;-65
2022/03/02 12:31:31;;;;;;;15.95;9.35;;;18.90;45.50;;;;;;5075456;28;20082;-65
2022/03/02 12:34:14;;;;;;;13.07;7.47;;;19.80;45.20;;;;;;5093737;28;20026;-64
2022/03/02 12:36:40;;;;;;;13.38;8.27;;;;;;;;;;5093367;28;20435;-64
2022/03/02 12:39:06;;;;;;;12.10;7.72;;;20.70;44.00;;;;;;5075335;28;20116;-64
2022/03/02 12:41:33;;;;;;;14.32;8.18;;;22.90;43.90;;;;;;5093549;28;20032;-65
2022/03/02 12:43:59;;;;;;;13.65;8.30;;;22.90;41.90;;;;;;5093653;28;20032;-63
2022/03/02 12:46:27;;;;;;;12.50;7.70;;;21.40;40.90;;;;;;5075335;28;20434;-64
2022/03/02 12:48:55;;;;;;;15.00;9.43;;;19.10;44.10;;;;;;5093593;28;20024;-65
2022/03/02 12:51:23;;;;;;;14.00;8.63;;;;;;;;;;5093407;28;20119;-65
2022/03/02 12:53:49;;;;;;;15.45;8.27;;;;;;;;;;5093391;28;20059;-67
2022/03/02 12:56:16;;;;;;;28.73;9.48;;;17.60;46.80;;;;;;5075232;28;20051;-67
2022/03/02 12:58:44;;;;;;;12.90;8.20;;;17.30;45.80;;;;;;5093261;28;20016;-65
2022/03/02 13:01:10;;;;;;;16.23;8.55;;;15.50;49.30;;;;;;5093230;28;20078;-67
2022/03/02 13:03:47;;;;;;;21.42;11.60;;;15.20;49.60;;;;;;5093232;28;20039;-68
2022/03/02 13:06:21;;;;;;;15.35;7.95;;;14.80;51.40;;;;;;5075034;28;20066;-68
2022/03/02 13:08:55;;;;;;;19.83;7.90;;;15.00;51.90;;;;;;5075103;28;20024;-67
2022/03/02 13:11:31;;;;;;;15.10;8.27;;;17.80;49.70;;;;;;5093126;28;20039;-67
2022/03/02 13:13:57;;;;;;;14.32;8.48;;;18.20;47.40;;;;;;5074690;28;20031;-65
2022/03/02 13:16:24;;;;;;;16.25;9.20;;;;;;;;;;5074830;28;20024;-69
2022/03/02 13:18:52;;;;;;;14.05;8.98;;;18.60;46.80;;;;;;5092943;28;20020;-66
2022/03/02 13:21:29;;;;;;;12.13;7.50;;;;;;;;;;5074617;28;20040;-67
2022/03/02 13:24:09;;;;;;;12.77;8.35;;;;;;;;;;5092869;28;20032;-66
2022/03/02 13:26:36;;;;;;;17.17;8.30;;;;;;;;;;5092819;28;20030;-68
2022/03/02 13:29:12;;;;;;;12.35;8.02;;;19.40;45.90;;;;;;5074652;28;20021;-66
2022/03/02 13:31:52;;;;;;;14.38;9.98;;;16.60;47.40;;;;;;5074797;28;20511;-66
2022/03/02 13:34:19;;;;;;;13.75;8.30;;;14.70;51.00;;;;;;5074608;28;20036;-66
2022/03/02 13:36:53;;;;;;;13.65;8.80;;;14.40;52.20;;;;;;5097732;28;20097;-66
2022/03/02 13:39:22;;;;;;;15.45;9.32;;;13.20;53.70;;;;;;5081167;28;20024;-67
2022/03/02 13:42:02;;;;;;;33.95;19.40;;;12.80;56.00;;;;;;5098745;28;20028;-67
2022/03/02 13:44:38;;;;;;;29.77;16.63;;;12.00;57.00;;;;;;5099225;28;20082;-65
2022/03/02 13:47:11;;;;;;;12.38;6.93;;;12.60;56.50;;;;;;5099556;28;20028;-65
2022/03/02 13:49:46;;;;;;;16.92;9.80;;;12.20;56.50;;;;;;5081080;28;20024;-65
2022/03/02 13:52:37;;;;;;;20.33;11.45;;;11.60;57.80;;;;;;5081439;28;20028;-64
2022/03/02 13:55:23;;;;;;;14.77;8.88;;;8.70;56.80;;;;;;5067098;28;20033;-69
2022/03/02 13:57:49;;;;;;;15.90;11.65;;;12.10;59.10;;;;;;5081201;28;20557;-66
2022/03/02 14:00:21;;;;;;;11.27;7.53;;;12.50;57.30;;;;;;5080926;28;20024;-66
2022/03/02 14:02:48;;;;;;;10.93;8.05;;;13.10;56.80;;;;;;5099486;28;20063;-66
2022/03/02 14:05:16;;;;;;;11.90;7.68;;;12.70;56.60;;;;;;5081071;28;20024;-69